createdAt,value
2023-05-05T00:02:04.223Z,2.20
2023-05-05T00:04:30.763Z,1.80
2023-05-05T00:09:29.541Z,2.00
2023-05-05T00:11:56.213Z,2.07
2023-05-05T00:14:22.822Z,2.00
2023-05-05T00:16:49.438Z,2.27
2023-05-05T00:19:15.982Z,2.23
2023-05-05T00:21:42.493Z,2.00
2023-05-05T00:24:10.109Z,2.30
2023-05-05T00:29:08.342Z,2.03
2023-05-05T00:31:35.010Z,2.27
2023-05-05T00:34:01.621Z,2.00
2023-05-05T00:36:28.483Z,2.13
2023-05-05T00:38:55.040Z,2.37
2023-05-05T00:41:21.631Z,1.77
2023-05-05T00:43:48.604Z,2.60
2023-05-05T00:46:24.460Z,1.90
2023-05-05T00:48:51.728Z,2.07
2023-05-05T00:51:19.861Z,2.23
2023-05-05T00:53:47.345Z,1.93
2023-05-05T00:56:14.474Z,2.00
2023-05-05T00:58:42.792Z,2.13
2023-05-05T01:01:10.985Z,1.90
2023-05-05T01:03:39.550Z,2.20
2023-05-05T01:06:15.244Z,2.53
2023-05-05T01:11:56.222Z,2.07
2023-05-05T01:17:17.674Z,1.93
2023-05-05T01:20:16.787Z,2.20
2023-05-05T01:22:46.974Z,2.37
2023-05-05T01:25:27.035Z,1.73
2023-05-05T01:28:11.647Z,2.07
2023-05-05T01:41:19.259Z,2.23
2023-05-05T01:43:50.129Z,1.90
2023-05-05T01:46:19.037Z,1.93
2023-05-05T01:51:22.916Z,2.40
2023-05-05T01:53:52.825Z,2.07
2023-05-05T01:58:54.447Z,2.60
2023-05-05T02:01:26.409Z,2.07
2023-05-05T02:11:36.317Z,2.50
2023-05-05T02:19:12.096Z,2.20
2023-05-05T02:21:39.357Z,2.17
2023-05-05T02:24:06.236Z,2.43
2023-05-05T02:26:36.023Z,2.07
2023-05-05T02:31:43.376Z,1.90
2023-05-05T02:34:10.981Z,1.90
2023-05-05T02:39:27.333Z,2.80
2023-05-05T02:44:31.759Z,2.30
2023-05-05T02:54:33.950Z,2.57
2023-05-05T02:59:49.431Z,2.00
2023-05-05T03:05:02.348Z,2.40
2023-05-05T03:10:14.801Z,2.13
2023-05-05T03:12:53.339Z,2.30
2023-05-05T03:17:58.231Z,2.10
2023-05-05T03:20:25.799Z,2.37
2023-05-05T03:25:45.165Z,2.10
2023-05-05T03:28:12.151Z,2.17
2023-05-05T03:30:38.800Z,2.13
2023-05-05T03:33:05.563Z,2.47
2023-05-05T03:35:32.275Z,2.30
2023-05-05T03:37:58.826Z,2.30
2023-05-05T03:40:36.358Z,2.30
2023-05-05T03:43:10.046Z,2.80
2023-05-05T03:45:36.934Z,2.50
2023-05-05T03:48:03.660Z,2.43
2023-05-05T03:50:30.249Z,2.80
2023-05-05T03:52:56.779Z,2.90
2023-05-05T03:55:24.400Z,2.57
2023-05-05T03:57:51.079Z,1.93
2023-05-05T04:02:49.498Z,2.10
2023-05-05T04:05:16.468Z,2.50
2023-05-05T04:07:43.121Z,2.50
2023-05-05T04:17:44.446Z,2.20
2023-05-05T04:20:11.358Z,2.50
2023-05-05T04:22:37.969Z,3.00
2023-05-05T04:25:04.861Z,2.83
2023-05-05T04:27:31.558Z,2.03
2023-05-05T04:29:58.127Z,2.77
2023-05-05T04:39:59.207Z,2.67
2023-05-05T04:44:57.399Z,2.33
2023-05-05T04:52:27.421Z,2.27
2023-05-05T04:54:54.809Z,2.20
2023-05-05T04:57:21.415Z,2.53
2023-05-05T05:02:19.777Z,2.53
2023-05-05T05:04:46.775Z,2.40
2023-05-05T05:19:55.170Z,2.53
2023-05-05T05:22:21.857Z,3.03
2023-05-05T05:24:48.420Z,2.93
2023-05-05T05:29:46.426Z,2.50
2023-05-05T05:32:13.050Z,2.50
2023-05-05T05:34:39.676Z,2.60
2023-05-05T05:37:06.356Z,2.80
2023-05-05T05:39:32.967Z,2.70
2023-05-05T05:41:59.643Z,2.87
2023-05-05T05:44:26.206Z,2.87
2023-05-05T05:46:52.750Z,3.10
2023-05-05T05:49:19.317Z,3.23
2023-05-05T05:54:17.458Z,3.40
2023-05-05T05:56:44.025Z,3.40
2023-05-05T05:59:10.770Z,3.17
2023-05-05T06:01:37.605Z,3.50
2023-05-05T06:04:04.287Z,3.40
2023-05-05T06:06:31.436Z,3.87
2023-05-05T06:08:58.015Z,3.10
2023-05-05T06:11:24.563Z,3.47
2023-05-05T06:13:51.118Z,3.87
2023-05-05T06:18:49.143Z,3.07
2023-05-05T06:21:15.811Z,3.77
2023-05-05T06:23:42.433Z,3.67
2023-05-05T06:26:09.054Z,3.10
2023-05-05T06:28:35.679Z,3.17
2023-05-05T06:31:02.272Z,3.50
2023-05-05T06:41:03.580Z,3.60
2023-05-05T06:51:04.669Z,3.87
2023-05-05T06:56:02.799Z,3.43
2023-05-05T06:58:29.313Z,3.93
2023-05-05T07:00:55.842Z,3.37
2023-05-05T07:03:22.495Z,3.23
2023-05-05T07:05:49.141Z,3.83
2023-05-05T07:08:15.669Z,3.47
2023-05-05T07:10:42.229Z,3.67
2023-05-05T07:13:08.938Z,3.07
2023-05-05T07:15:35.662Z,3.53
2023-05-05T07:18:02.411Z,3.40
2023-05-05T07:20:29.020Z,4.33
2023-05-05T07:22:55.932Z,3.83
2023-05-05T07:25:22.611Z,4.40
2023-05-05T07:27:49.219Z,3.67
2023-05-05T07:30:18.484Z,3.73
2023-05-05T07:37:49.260Z,3.07
2023-05-05T07:40:15.854Z,3.53
2023-05-05T07:42:42.429Z,3.43
2023-05-05T07:47:41.094Z,4.00
2023-05-05T07:55:09.276Z,3.70
2023-05-05T07:57:35.865Z,2.90
2023-05-05T08:00:02.734Z,3.10
2023-05-05T08:02:29.411Z,3.47
2023-05-05T08:04:56.013Z,3.83
2023-05-05T08:07:22.900Z,3.73
2023-05-05T08:09:49.481Z,3.33
2023-05-05T08:14:50.526Z,2.90
2023-05-05T08:19:54.385Z,3.00
2023-05-05T08:22:21.957Z,3.00
2023-05-05T08:24:48.533Z,3.47
2023-05-05T08:29:46.705Z,3.20
2023-05-05T08:34:44.758Z,3.13
2023-05-05T08:37:11.327Z,3.30
2023-05-05T08:39:37.975Z,2.80
2023-05-05T08:44:36.236Z,3.03
2023-05-05T08:47:03.573Z,3.33
2023-05-05T08:49:48.241Z,3.10
2023-05-05T08:55:14.018Z,3.10
2023-05-05T08:57:52.518Z,3.20
2023-05-05T09:02:54.382Z,2.70
2023-05-05T09:05:21.075Z,3.27
2023-05-05T09:07:48.788Z,3.00
2023-05-05T09:10:15.798Z,3.10
2023-05-05T09:12:42.862Z,3.70
2023-05-05T09:15:14.907Z,2.70
2023-05-05T09:22:47.327Z,2.70
2023-05-05T09:25:18.229Z,2.93
2023-05-05T09:27:49.326Z,2.90
2023-05-05T09:30:23.451Z,2.60
2023-05-05T09:32:51.936Z,2.77
2023-05-05T09:35:20.335Z,3.50
2023-05-05T09:37:47.108Z,2.67
2023-05-05T09:40:16.390Z,2.90
2023-05-05T09:42:44.222Z,3.27
2023-05-05T09:47:53.231Z,2.80
2023-05-05T09:50:23.403Z,2.67
2023-05-05T09:58:23.366Z,2.93
2023-05-05T10:00:50.236Z,3.20
2023-05-05T10:03:16.976Z,2.40
2023-05-05T10:05:50.531Z,2.50
2023-05-05T10:08:19.229Z,2.30
2023-05-05T10:11:06.866Z,2.57
2023-05-05T10:13:41.838Z,2.20
2023-05-05T10:16:09.685Z,2.40
2023-05-05T10:18:39.714Z,2.20
2023-05-05T10:21:07.426Z,2.27
2023-05-05T10:23:45.686Z,1.97
2023-05-05T10:26:14.603Z,2.10
2023-05-05T10:28:49.091Z,1.90
2023-05-05T10:31:30.071Z,2.43
2023-05-05T10:34:09.680Z,2.60
2023-05-05T10:36:38.537Z,2.10
2023-05-05T10:41:41.296Z,2.20
2023-05-05T10:44:10.588Z,2.03
2023-05-05T10:46:37.951Z,2.33
2023-05-05T10:49:34.493Z,2.60
2023-05-05T10:52:12.097Z,2.00
2023-05-05T11:02:31.720Z,1.80
2023-05-05T11:05:16.909Z,1.70
2023-05-05T11:07:45.050Z,1.83
2023-05-05T11:10:13.775Z,2.00
2023-05-05T11:13:06.708Z,1.70
2023-05-05T11:15:37.334Z,1.70
2023-05-05T11:18:07.568Z,2.17
2023-05-05T11:20:39.478Z,1.90
2023-05-05T11:23:06.202Z,1.70
2023-05-05T11:25:42.003Z,1.67
2023-05-05T11:28:13.998Z,2.00
2023-05-05T11:33:29.250Z,1.50
2023-05-05T11:38:57.230Z,1.80
2023-05-05T11:41:32.507Z,1.90
2023-05-05T11:44:32.244Z,1.87
2023-05-05T11:47:02.591Z,1.93
2023-05-05T11:49:31.379Z,1.50
2023-05-05T11:51:59.018Z,1.97
2023-05-05T11:54:26.279Z,1.70
2023-05-05T11:56:57.327Z,1.70
2023-05-05T11:59:24.056Z,1.43
2023-05-05T12:01:51.021Z,1.53
2023-05-05T12:04:18.163Z,1.50
2023-05-05T12:09:22.341Z,1.70
2023-05-05T12:17:08.565Z,1.60
2023-05-05T12:27:11.543Z,1.77
2023-05-05T12:29:38.117Z,1.50
2023-05-05T12:32:05.075Z,1.60
2023-05-05T12:34:32.559Z,1.50
2023-05-05T12:36:59.151Z,1.40
2023-05-05T12:39:36.246Z,1.60
2023-05-05T12:42:04.301Z,1.73
2023-05-05T12:47:13.104Z,1.60
2023-05-05T12:49:50.725Z,1.40
2023-05-05T12:52:18.053Z,1.70
2023-05-05T12:54:58.326Z,1.47
2023-05-05T13:02:35.615Z,1.40
2023-05-05T13:05:02.302Z,1.30
2023-05-05T13:07:28.816Z,1.70
2023-05-05T13:10:08.013Z,1.27
2023-05-05T13:17:38.083Z,1.60
2023-05-05T13:20:06.377Z,1.30
2023-05-05T13:22:32.931Z,1.63
2023-05-05T13:24:59.511Z,1.50
2023-05-05T13:27:26.155Z,1.30
2023-05-05T13:29:52.752Z,1.20
2023-05-05T13:32:19.384Z,1.37
2023-05-05T13:34:45.983Z,1.87
2023-05-05T13:37:12.579Z,2.00
2023-05-05T13:39:39.171Z,1.60
2023-05-05T13:42:05.744Z,1.47
2023-05-05T13:44:32.383Z,1.67
2023-05-05T13:46:59.096Z,1.57
2023-05-05T13:49:25.855Z,1.63
2023-05-05T13:51:52.447Z,1.77
2023-05-05T13:54:19.047Z,1.93
2023-05-05T13:56:45.891Z,1.40
2023-05-05T13:59:12.636Z,1.47
2023-05-05T14:01:39.526Z,1.40
2023-05-05T14:04:06.380Z,1.90
2023-05-05T14:06:33.809Z,1.60
2023-05-05T14:11:32.227Z,1.50
2023-05-05T14:16:30.473Z,1.40
2023-05-05T14:24:00.113Z,1.33
2023-05-05T14:28:58.685Z,1.30
2023-05-05T14:33:56.654Z,1.50
2023-05-05T14:36:23.487Z,1.30
2023-05-05T14:38:50.041Z,1.47
2023-05-05T14:41:16.716Z,1.43
2023-05-05T14:43:43.885Z,1.57
2023-05-05T14:46:10.791Z,1.27
2023-05-05T14:48:37.525Z,1.60
2023-05-05T14:51:04.558Z,1.53
2023-05-05T14:53:31.334Z,1.50
2023-05-05T14:55:57.915Z,1.67
2023-05-05T14:58:24.650Z,1.50
2023-05-05T15:00:52.685Z,1.10
2023-05-05T15:03:19.294Z,1.47
2023-05-05T15:05:46.296Z,1.10
2023-05-05T15:08:14.335Z,1.07
2023-05-05T15:10:41.015Z,1.00
2023-05-05T15:13:07.696Z,1.20
2023-05-05T15:15:34.340Z,1.23
2023-05-05T15:18:01.038Z,1.30
2023-05-05T15:20:27.870Z,1.43
2023-05-05T15:22:55.110Z,1.40
2023-05-05T15:25:22.211Z,1.27
2023-05-05T15:37:56.852Z,1.40
2023-05-05T15:40:23.548Z,1.27
2023-05-05T15:42:50.186Z,1.03
2023-05-05T15:45:17.358Z,1.03
2023-05-05T15:50:16.087Z,1.30
2023-05-05T15:57:39.286Z,0.90
2023-05-05T16:00:07.797Z,1.40
2023-05-05T16:02:34.603Z,1.30
2023-05-05T16:05:01.249Z,1.10
2023-05-05T16:07:27.845Z,1.30
2023-05-05T16:09:54.460Z,1.27
2023-05-05T16:12:21.210Z,1.43
2023-05-05T16:14:48.348Z,1.30
2023-05-05T16:17:14.968Z,1.50
2023-05-05T16:19:41.497Z,1.17
2023-05-05T16:22:08.060Z,1.30
2023-05-05T16:24:34.822Z,1.20
2023-05-05T16:27:01.516Z,1.27
2023-05-05T16:31:59.695Z,1.50
2023-05-05T16:34:26.440Z,1.20
2023-05-05T16:36:53.289Z,1.23
2023-05-05T16:39:19.791Z,1.23
2023-05-05T16:44:17.884Z,1.17
2023-05-05T16:46:44.660Z,2.00
2023-05-05T16:49:11.304Z,1.87
2023-05-05T16:51:37.911Z,1.57
2023-05-05T16:54:04.495Z,1.40
2023-05-05T16:56:31.088Z,1.20
2023-05-05T16:58:57.650Z,1.10
2023-05-05T17:01:24.290Z,0.87
2023-05-05T17:03:51.032Z,1.53
2023-05-05T17:06:17.730Z,1.03
2023-05-05T17:13:47.237Z,1.10
2023-05-05T17:21:16.797Z,1.10
2023-05-05T17:23:43.327Z,1.20
2023-05-05T17:26:09.919Z,1.50
2023-05-05T17:28:36.472Z,1.20
2023-05-05T17:31:02.998Z,1.10
2023-05-05T17:33:29.567Z,1.30
2023-05-05T17:35:56.810Z,1.13
2023-05-05T17:38:23.477Z,1.40
2023-05-05T17:40:50.031Z,1.20
2023-05-05T17:48:19.743Z,0.70
2023-05-05T17:50:47.089Z,1.13
2023-05-05T17:53:13.660Z,1.30
2023-05-05T17:55:44.648Z,1.17
2023-05-05T17:58:11.312Z,1.37
2023-05-05T18:00:37.880Z,1.20
2023-05-05T18:05:36.092Z,1.13
2023-05-05T18:08:02.725Z,1.23
2023-05-05T18:10:29.775Z,1.27
2023-05-05T18:12:56.422Z,1.40
2023-05-05T18:25:29.169Z,1.60
2023-05-05T18:30:27.354Z,1.20
2023-05-05T18:32:54.075Z,0.90
2023-05-05T18:35:21.370Z,1.30
2023-05-05T18:37:48.020Z,1.10
2023-05-05T18:40:14.821Z,1.37
2023-05-05T18:42:41.528Z,1.43
2023-05-05T18:55:16.383Z,1.63
2023-05-05T18:57:42.976Z,1.57
2023-05-05T19:00:10.283Z,1.50
2023-05-05T19:02:36.902Z,1.47
2023-05-05T19:05:03.769Z,1.20
2023-05-05T19:07:35.584Z,1.30
2023-05-05T19:10:04.544Z,2.03
2023-05-05T19:12:31.283Z,1.47
2023-05-05T19:14:57.912Z,1.50
2023-05-05T19:17:24.534Z,1.33
2023-05-05T19:19:51.474Z,1.50
2023-05-05T19:22:18.064Z,2.07
2023-05-05T19:24:44.646Z,2.10
2023-05-05T19:27:15.520Z,2.10
2023-05-05T19:32:14.880Z,1.63
2023-05-05T19:34:42.221Z,1.40
2023-05-05T19:37:08.776Z,1.57
2023-05-05T19:39:35.564Z,1.70
2023-05-05T19:42:02.446Z,1.70
2023-05-05T19:44:29.070Z,1.53
2023-05-05T19:46:55.599Z,1.80
2023-05-05T19:49:22.272Z,1.97
2023-05-05T19:51:50.180Z,1.80
2023-05-05T19:54:17.872Z,1.50
2023-05-05T19:56:44.426Z,1.60
2023-05-05T19:59:10.988Z,1.83
2023-05-05T20:01:37.705Z,1.60
2023-05-05T20:04:04.536Z,1.50
2023-05-05T20:06:32.598Z,1.80
2023-05-05T20:08:59.305Z,1.60
2023-05-05T20:13:58.088Z,1.90
2023-05-05T20:16:24.896Z,1.93
2023-05-05T20:18:51.547Z,1.50
2023-05-05T20:21:18.403Z,1.40
2023-05-05T20:23:45.862Z,1.80
2023-05-05T20:26:12.994Z,1.83
2023-05-05T20:31:11.940Z,1.60
2023-05-05T20:33:38.589Z,2.00
2023-05-05T20:36:05.601Z,1.90
2023-05-05T20:38:32.259Z,1.70
2023-05-05T20:40:59.260Z,1.63
2023-05-05T20:43:25.971Z,1.70
2023-05-05T20:45:52.917Z,1.60
2023-05-05T20:48:19.643Z,1.73
2023-05-05T20:50:46.286Z,1.70
2023-05-05T20:53:16.032Z,1.70
2023-05-05T20:55:42.631Z,1.50
2023-05-05T20:58:09.286Z,1.53
2023-05-05T21:05:40.867Z,2.00
2023-05-05T21:08:07.849Z,1.87
2023-05-05T21:10:34.546Z,1.63
2023-05-05T21:13:02.639Z,1.80
2023-05-05T21:15:29.698Z,1.43
2023-05-05T21:17:57.243Z,1.60
2023-05-05T21:20:23.830Z,1.70
2023-05-05T21:22:50.480Z,2.13
2023-05-05T21:25:19.309Z,1.30
2023-05-05T21:27:47.042Z,1.90
2023-05-05T21:30:14.334Z,1.77
2023-05-05T21:32:41.561Z,1.90
2023-05-05T21:35:09.212Z,1.40
2023-05-05T21:42:44.907Z,1.70
2023-05-05T21:45:12.024Z,1.90
2023-05-05T21:47:38.674Z,1.47
2023-05-05T21:52:37.435Z,1.80
2023-05-05T22:00:08.834Z,1.57
2023-05-05T22:02:35.652Z,1.73
2023-05-05T22:05:02.303Z,1.53
2023-05-05T22:07:29.957Z,2.10
2023-05-05T22:09:57.495Z,1.67
2023-05-05T22:12:24.104Z,1.93
2023-05-05T22:14:50.728Z,1.70
2023-05-05T22:17:17.263Z,1.53
2023-05-05T22:19:43.852Z,1.60
2023-05-05T22:22:10.419Z,2.10
2023-05-05T22:24:36.940Z,1.73
2023-05-05T22:27:03.660Z,1.83
2023-05-05T22:29:30.287Z,1.60
2023-05-05T22:31:56.881Z,1.80
2023-05-05T22:34:23.776Z,1.43
2023-05-05T22:36:50.284Z,1.83
2023-05-05T22:39:18.457Z,1.70
2023-05-05T22:41:45.169Z,2.40
2023-05-05T22:46:43.446Z,1.50
2023-05-05T22:54:13.258Z,1.83
2023-05-05T22:56:40.226Z,2.03
2023-05-05T22:59:06.805Z,1.70
2023-05-05T23:01:34.200Z,1.67
2023-05-05T23:06:32.438Z,1.60
2023-05-05T23:08:58.964Z,1.70
2023-05-05T23:11:26.203Z,1.77
2023-05-05T23:13:53.304Z,1.67
2023-05-05T23:16:19.877Z,1.53
2023-05-05T23:18:46.440Z,1.67
2023-05-05T23:21:12.968Z,1.73
2023-05-05T23:23:39.584Z,1.50
2023-05-05T23:26:06.238Z,1.50
2023-05-05T23:28:32.798Z,2.27
2023-05-05T23:30:59.531Z,1.70
2023-05-05T23:33:26.376Z,1.50
2023-05-05T23:35:53.418Z,1.53
2023-05-05T23:38:20.083Z,1.77
2023-05-05T23:40:46.666Z,1.80
2023-05-05T23:43:13.182Z,1.60
2023-05-05T23:45:40.439Z,1.60
2023-05-05T23:48:07.123Z,1.40
2023-05-05T23:50:33.680Z,1.60
2023-05-05T23:53:00.193Z,1.73
